createdAt,value
2022-11-26T00:00:50.552Z,11.51
2022-11-26T00:01:50.815Z,11.5
2022-11-26T00:02:50.912Z,11.52
2022-11-26T00:03:50.717Z,11.54
2022-11-26T00:04:50.795Z,11.48
2022-11-26T00:05:50.373Z,11.5
2022-11-26T00:06:50.674Z,11.45
2022-11-26T00:07:50.716Z,11.5
2022-11-26T00:08:50.431Z,11.51
2022-11-26T00:09:50.699Z,11.54
2022-11-26T00:10:50.713Z,11.48
2022-11-26T00:11:50.477Z,11.59
2022-11-26T00:12:50.557Z,11.52
2022-11-26T00:13:50.791Z,11.54
2022-11-26T00:14:50.275Z,11.54
2022-11-26T00:15:50.812Z,11.51
2022-11-26T00:16:51.042Z,11.51
2022-11-26T00:17:50.831Z,11.5
2022-11-26T00:18:50.853Z,11.52
2022-11-26T00:19:50.350Z,11.45
2022-11-26T00:20:50.638Z,11.48
2022-11-26T00:21:50.907Z,11.5
2022-11-26T00:22:50.944Z,11.54
2022-11-26T00:23:50.665Z,11.48
2022-11-26T00:24:50.695Z,11.44
2022-11-26T00:25:50.444Z,11.45
2022-11-26T00:26:50.734Z,11.44
2022-11-26T00:27:50.738Z,11.44
2022-11-26T00:28:50.792Z,11.45
2022-11-26T00:29:51.053Z,11.44
2022-11-26T00:30:51.043Z,11.47
2022-11-26T00:31:51.103Z,11.4
2022-11-26T00:32:50.824Z,11.44
2022-11-26T00:33:50.841Z,11.5
2022-11-26T00:34:50.593Z,11.4
2022-11-26T00:35:50.867Z,11.45
2022-11-26T00:36:50.896Z,11.51
2022-11-26T00:37:51.184Z,11.44
2022-11-26T00:38:50.941Z,11.55
2022-11-26T00:39:50.930Z,11.44
2022-11-26T00:40:51.217Z,11.45
2022-11-26T00:41:51.265Z,11.43
2022-11-26T00:42:51.249Z,11.44
2022-11-26T00:43:51.265Z,11.44
2022-11-26T00:44:51.294Z,11.54
2022-11-26T00:45:51.462Z,11.48
2022-11-26T00:46:51.327Z,11.45
2022-11-26T00:47:51.351Z,11.48
2022-11-26T00:48:51.358Z,11.45
2022-11-26T00:49:51.401Z,11.44
2022-11-26T00:50:50.866Z,11.41
2022-11-26T00:51:51.139Z,11.43
2022-11-26T00:52:50.888Z,11.48
2022-11-26T00:53:51.175Z,11.44
2022-11-26T00:54:51.462Z,11.44
2022-11-26T00:55:51.465Z,11.41
2022-11-26T00:56:51.228Z,11.45
2022-11-26T00:57:51.486Z,11.41
2022-11-26T00:58:51.513Z,11.43
2022-11-26T00:59:51.554Z,11.37
2022-11-26T01:00:51.877Z,11.37
2022-11-26T01:01:51.917Z,11.4
2022-11-26T01:02:51.570Z,11.4
2022-11-26T01:03:51.342Z,11.52
2022-11-26T01:04:51.349Z,11.41
2022-11-26T01:05:51.374Z,11.51
2022-11-26T01:06:51.391Z,11.45
2022-11-26T01:07:51.907Z,11.41
2022-11-26T01:08:51.672Z,11.41
2022-11-26T01:09:51.693Z,11.43
2022-11-26T01:10:51.733Z,11.36
2022-11-26T01:11:56.720Z,11.36
2022-11-26T01:12:51.499Z,11.41
2022-11-26T01:13:51.503Z,11.47
2022-11-26T01:14:51.791Z,11.43
2022-11-26T01:15:51.794Z,11.4
2022-11-26T01:16:51.810Z,11.43
2022-11-26T01:17:51.855Z,11.47
2022-11-26T01:18:51.582Z,11.47
2022-11-26T01:19:51.851Z,11.4
2022-11-26T01:20:51.870Z,11.41
2022-11-26T01:21:51.633Z,11.47
2022-11-26T01:22:51.908Z,11.37
2022-11-26T01:23:51.421Z,11.36
2022-11-26T01:24:51.954Z,11.41
2022-11-26T01:25:51.957Z,11.37
2022-11-26T01:26:52.001Z,11.47
2022-11-26T01:27:51.733Z,11.4
2022-11-26T01:28:52.002Z,11.36
2022-11-26T01:29:51.498Z,11.4
2022-11-26T01:30:52.055Z,11.43
2022-11-26T01:31:52.418Z,11.37
2022-11-26T01:32:51.836Z,11.37
2022-11-26T01:33:52.116Z,11.32
2022-11-26T01:34:52.121Z,11.37
2022-11-26T01:35:51.856Z,11.41
2022-11-26T01:36:52.141Z,11.4
2022-11-26T01:37:52.166Z,11.37
2022-11-26T01:38:51.909Z,11.35
2022-11-26T01:39:52.213Z,11.41
2022-11-26T01:40:51.943Z,11.35
2022-11-26T01:41:52.223Z,11.37
2022-11-26T01:42:52.275Z,11.36
2022-11-26T01:43:51.994Z,11.22
2022-11-26T01:44:52.274Z,11.45
2022-11-26T01:45:52.290Z,11.19
2022-11-26T01:46:51.792Z,11.4
2022-11-26T01:47:52.340Z,11.35
2022-11-26T01:48:52.367Z,11.41
2022-11-26T01:49:52.382Z,11.35
2022-11-26T01:50:52.373Z,11.29
2022-11-26T01:51:52.385Z,11.4
2022-11-26T01:52:52.142Z,11.35
2022-11-26T01:53:52.434Z,11.35
2022-11-26T01:54:52.440Z,11.37
2022-11-26T01:55:52.201Z,11.35
2022-11-26T01:56:52.470Z,11.4
2022-11-26T01:57:52.483Z,11.33
2022-11-26T01:58:52.272Z,11.37
2022-11-26T01:59:52.519Z,11.32
2022-11-26T02:00:52.436Z,11.35
2022-11-26T02:01:52.557Z,11.37
2022-11-26T02:02:52.462Z,11.32
2022-11-26T02:03:52.581Z,11.33
2022-11-26T02:04:52.635Z,11.4
2022-11-26T02:05:52.388Z,11.35
2022-11-26T02:06:52.137Z,11.4
2022-11-26T02:07:52.822Z,11.27
2022-11-26T02:08:52.436Z,11.3
2022-11-26T02:09:52.432Z,11.35
2022-11-26T02:10:52.705Z,11.32
2022-11-26T02:11:52.718Z,11.4
2022-11-26T02:12:52.468Z,11.33
2022-11-26T02:13:52.762Z,11.33
2022-11-26T02:14:52.792Z,11.37
2022-11-26T02:15:52.522Z,11.33
2022-11-26T02:16:53.019Z,11.3
2022-11-26T02:17:52.909Z,11.36
2022-11-26T02:18:52.823Z,11.25
2022-11-26T02:19:52.852Z,11.3
2022-11-26T02:20:52.625Z,11.37
2022-11-26T02:21:52.657Z,11.33
2022-11-26T02:22:52.648Z,11.35
2022-11-26T02:23:52.913Z,11.32
2022-11-26T02:24:52.412Z,11.32
2022-11-26T02:25:52.685Z,11.36
2022-11-26T02:26:52.957Z,11.3
2022-11-26T02:27:52.983Z,11.3
2022-11-26T02:28:52.470Z,11.33
2022-11-26T02:29:53.017Z,11.35
2022-11-26T02:30:53.062Z,11.33
2022-11-26T02:31:52.819Z,11.3
2022-11-26T02:32:52.797Z,11.37
2022-11-26T02:33:52.819Z,11.26
2022-11-26T02:34:52.581Z,11.3
2022-11-26T02:35:53.108Z,11.33
2022-11-26T02:36:52.634Z,11.29
2022-11-26T02:37:52.915Z,11.23
2022-11-26T02:38:53.164Z,11.32
2022-11-26T02:39:52.657Z,11.26
2022-11-26T02:40:52.936Z,11.19
2022-11-26T02:41:52.941Z,11.26
2022-11-26T02:42:53.225Z,11.26
2022-11-26T02:43:53.238Z,11.23
2022-11-26T02:44:53.254Z,11.19
2022-11-26T02:45:53.324Z,11.29
2022-11-26T02:46:53.084Z,11.3
2022-11-26T02:47:53.070Z,11.29
2022-11-26T02:48:53.348Z,11.29
2022-11-26T02:49:53.081Z,11.27
2022-11-26T02:50:53.362Z,11.18
2022-11-26T02:51:53.119Z,11.3
2022-11-26T02:52:53.153Z,11.27
2022-11-26T02:53:53.447Z,11.22
2022-11-26T02:54:52.939Z,11.19
2022-11-26T02:55:53.435Z,11.19
2022-11-26T02:56:53.194Z,11.25
2022-11-26T02:57:52.957Z,11.15
2022-11-26T02:58:53.497Z,11.22
2022-11-26T02:59:53.270Z,11.22
2022-11-26T03:00:53.706Z,11.17
2022-11-26T03:01:53.311Z,11.12
2022-11-26T03:02:53.596Z,11.15
2022-11-26T03:03:53.242Z,11.22
2022-11-26T03:04:53.584Z,11.14
2022-11-26T03:05:53.088Z,11.22
2022-11-26T03:06:53.364Z,11.12
2022-11-26T03:07:53.631Z,11.11
2022-11-26T03:08:53.426Z,11.11
2022-11-26T03:09:53.682Z,11.14
2022-11-26T03:10:53.165Z,11.12
2022-11-26T03:11:53.900Z,11.1
2022-11-26T03:12:53.720Z,11.08
2022-11-26T03:13:53.480Z,11.05
2022-11-26T03:14:53.487Z,11.12
2022-11-26T03:15:53.504Z,11.15
2022-11-26T03:16:54.009Z,11.04
2022-11-26T03:17:53.799Z,11.14
2022-11-26T03:18:53.845Z,10.99
2022-11-26T03:19:53.839Z,11.04
2022-11-26T03:20:56.970Z,11.04
2022-11-26T03:21:53.596Z,11.04
2022-11-26T03:22:53.878Z,11.05
2022-11-26T03:23:53.407Z,11.04
2022-11-26T03:24:53.947Z,10.97
2022-11-26T03:25:53.695Z,11.02
2022-11-26T03:26:53.939Z,11.05
2022-11-26T03:27:53.692Z,11.02
2022-11-26T03:28:53.990Z,10.97
2022-11-26T03:29:54.003Z,11
2022-11-26T03:30:53.755Z,10.94
2022-11-26T03:31:54.000Z,10.96
2022-11-26T03:32:53.534Z,11.02
2022-11-26T03:33:53.808Z,11.04
2022-11-26T03:34:54.097Z,10.97
2022-11-26T03:35:53.583Z,10.94
2022-11-26T03:36:53.851Z,10.97
2022-11-26T03:37:53.871Z,11.02
2022-11-26T03:38:54.139Z,11.02
2022-11-26T03:39:54.163Z,11.02
2022-11-26T03:40:54.198Z,11
2022-11-26T03:41:54.219Z,10.97
2022-11-26T03:42:54.215Z,11.02
2022-11-26T03:43:54.226Z,10.94
2022-11-26T03:44:53.978Z,11
2022-11-26T03:45:54.208Z,10.99
2022-11-26T03:46:53.757Z,10.99
2022-11-26T03:47:54.396Z,11.05
2022-11-26T03:48:54.051Z,10.99
2022-11-26T03:49:54.322Z,11.07
2022-11-26T03:50:54.373Z,10.94
2022-11-26T03:51:54.136Z,11.02
2022-11-26T03:52:54.381Z,10.94
2022-11-26T03:53:54.121Z,10.92
2022-11-26T03:54:54.398Z,10.99
2022-11-26T03:55:54.176Z,11.02
2022-11-26T03:56:54.469Z,11.02
2022-11-26T03:57:54.484Z,10.92
2022-11-26T03:58:54.212Z,10.94
2022-11-26T03:59:54.227Z,10.93
2022-11-26T04:00:54.522Z,10.99
2022-11-26T04:01:54.687Z,10.92
2022-11-26T04:02:54.749Z,10.96
2022-11-26T04:03:54.032Z,10.97
2022-11-26T04:04:54.563Z,10.99
2022-11-26T04:05:54.325Z,10.94
2022-11-26T04:06:54.357Z,10.94
2022-11-26T04:07:54.667Z,11.05
2022-11-26T04:08:54.635Z,10.97
2022-11-26T04:09:54.647Z,10.94
2022-11-26T04:10:54.142Z,10.94
2022-11-26T04:11:54.424Z,10.94
2022-11-26T04:12:54.465Z,10.96
2022-11-26T04:13:54.745Z,10.94
2022-11-26T04:14:54.721Z,10.92
2022-11-26T04:15:54.770Z,10.99
2022-11-26T04:16:55.075Z,10.89
2022-11-26T04:17:54.778Z,10.89
2022-11-26T04:18:54.545Z,10.97
2022-11-26T04:19:54.551Z,10.93
2022-11-26T04:20:57.767Z,11
2022-11-26T04:21:54.580Z,10.93
2022-11-26T04:22:54.623Z,10.93
2022-11-26T04:23:54.876Z,10.87
2022-11-26T04:24:54.891Z,10.94
2022-11-26T04:25:54.906Z,10.96
2022-11-26T04:26:54.407Z,10.78
2022-11-26T04:27:54.940Z,10.92
2022-11-26T04:28:54.731Z,10.96
2022-11-26T04:29:54.996Z,10.78
2022-11-26T04:30:55.035Z,10.86
2022-11-26T04:31:54.953Z,10.89
2022-11-26T04:32:55.027Z,10.96
2022-11-26T04:33:55.036Z,10.82
2022-11-26T04:34:55.064Z,10.82
2022-11-26T04:35:54.810Z,10.89
2022-11-26T04:36:54.826Z,10.92
2022-11-26T04:37:54.856Z,10.79
2022-11-26T04:38:54.890Z,10.94
2022-11-26T04:39:54.869Z,11.04
2022-11-26T04:40:54.894Z,10.81
2022-11-26T04:41:54.915Z,10.92
2022-11-26T04:42:55.190Z,10.76
2022-11-26T04:43:55.323Z,10.78
2022-11-26T04:44:55.232Z,10.94
2022-11-26T04:45:55.484Z,10.92
2022-11-26T04:46:55.248Z,10.78
2022-11-26T04:47:55.007Z,10.75
2022-11-26T04:48:55.035Z,10.94
2022-11-26T04:49:55.292Z,10.89
2022-11-26T04:50:55.312Z,10.89
2022-11-26T04:51:55.334Z,10.75
2022-11-26T04:52:55.358Z,10.94
2022-11-26T04:54:08.669Z,10.87
2022-11-26T04:54:55.143Z,10.86
2022-11-26T04:55:55.402Z,10.87
2022-11-26T04:56:55.407Z,10.79
2022-11-26T04:57:55.442Z,10.86
2022-11-26T04:58:55.454Z,10.82
2022-11-26T04:59:55.455Z,10.79
2022-11-26T05:00:56.260Z,10.92
2022-11-26T05:01:55.260Z,10.93
2022-11-26T05:02:55.676Z,10.89
2022-11-26T05:03:55.279Z,10.81
2022-11-26T05:04:55.536Z,10.86
2022-11-26T05:05:55.356Z,10.81
2022-11-26T05:06:55.318Z,10.86
2022-11-26T05:07:55.781Z,10.84
2022-11-26T05:08:55.348Z,10.79
2022-11-26T05:09:55.626Z,10.81
2022-11-26T05:10:55.401Z,10.82
2022-11-26T05:11:55.651Z,10.89
2022-11-26T05:12:55.413Z,10.81
2022-11-26T05:13:55.430Z,10.81
2022-11-26T05:14:55.440Z,10.79
2022-11-26T05:15:55.464Z,10.81
2022-11-26T05:16:55.944Z,10.82
2022-11-26T05:17:55.523Z,10.96
2022-11-26T05:18:55.768Z,10.93
2022-11-26T05:19:55.522Z,10.86
2022-11-26T05:20:55.801Z,10.76
2022-11-26T05:21:55.813Z,10.79
2022-11-26T05:22:55.832Z,10.82
2022-11-26T05:23:55.852Z,10.78
2022-11-26T05:24:55.607Z,10.78
2022-11-26T05:25:55.615Z,10.81
2022-11-26T05:27:01.495Z,10.81
2022-11-26T05:27:55.659Z,10.76
2022-11-26T05:28:55.667Z,10.82
2022-11-26T05:29:55.696Z,10.79
2022-11-26T05:30:55.444Z,10.86
2022-11-26T05:31:56.148Z,10.81
2022-11-26T05:32:56.013Z,10.76
2022-11-26T05:33:56.039Z,10.76
2022-11-26T05:35:02.935Z,10.78
2022-11-26T05:35:55.792Z,10.84
2022-11-26T05:36:56.056Z,10.81
2022-11-26T05:37:55.823Z,10.75
2022-11-26T05:38:56.104Z,10.81
2022-11-26T05:39:55.856Z,10.78
2022-11-26T05:40:55.622Z,10.76
2022-11-26T05:41:56.140Z,10.75
2022-11-26T05:42:56.177Z,10.78
2022-11-26T05:43:56.178Z,10.68
2022-11-26T05:44:55.930Z,10.76
2022-11-26T05:45:55.946Z,10.68
2022-11-26T05:46:56.223Z,10.69
2022-11-26T05:47:55.988Z,10.74
2022-11-26T05:48:56.272Z,10.71
2022-11-26T05:49:56.297Z,10.75
2022-11-26T05:50:59.532Z,10.71
2022-11-26T05:51:56.036Z,10.71
2022-11-26T05:52:56.055Z,10.67
2022-11-26T05:53:56.080Z,10.68
2022-11-26T05:54:56.439Z,10.74
2022-11-26T05:55:56.363Z,10.68
2022-11-26T05:57:03.340Z,10.74
2022-11-26T05:57:56.400Z,10.69
2022-11-26T05:58:56.179Z,10.69
2022-11-26T05:59:56.183Z,10.69
2022-11-26T06:00:56.442Z,10.71
2022-11-26T06:01:56.745Z,10.69
2022-11-26T06:02:56.954Z,10.69
2022-11-26T06:03:56.550Z,10.68
2022-11-26T06:04:56.538Z,10.69
2022-11-26T06:05:56.578Z,10.64
2022-11-26T06:06:56.568Z,10.61
2022-11-26T06:07:56.472Z,10.68
2022-11-26T06:08:56.322Z,10.61
2022-11-26T06:09:56.337Z,10.59
2022-11-26T06:10:56.345Z,10.71
2022-11-26T06:11:56.361Z,10.68
2022-11-26T06:12:56.384Z,10.59
2022-11-26T06:13:56.654Z,10.61
2022-11-26T06:14:56.697Z,10.68
2022-11-26T06:15:56.686Z,10.71
2022-11-26T06:16:56.576Z,10.67
2022-11-26T06:17:56.462Z,10.6
2022-11-26T06:18:56.731Z,10.68
2022-11-26T06:19:56.760Z,10.71
2022-11-26T06:20:56.284Z,10.59
2022-11-26T06:21:56.805Z,10.59
2022-11-26T06:22:56.797Z,10.69
2022-11-26T06:24:03.908Z,10.74
2022-11-26T06:24:56.867Z,10.67
2022-11-26T06:25:56.587Z,10.57
2022-11-26T06:26:56.861Z,10.64
2022-11-26T06:27:56.881Z,10.71
2022-11-26T06:28:56.600Z,10.63
2022-11-26T06:29:56.651Z,10.57
2022-11-26T06:30:56.702Z,10.63
2022-11-26T06:31:57.025Z,10.71
2022-11-26T06:32:56.703Z,10.63
2022-11-26T06:33:56.720Z,10.59
2022-11-26T06:34:58.906Z,10.67
2022-11-26T06:35:57.013Z,10.6
2022-11-26T06:36:56.996Z,10.67
2022-11-26T06:37:57.063Z,10.67
2022-11-26T06:38:56.796Z,10.68
2022-11-26T06:39:56.824Z,10.57
2022-11-26T06:40:56.839Z,10.68
2022-11-26T06:41:57.105Z,10.6
2022-11-26T06:42:56.868Z,10.67
2022-11-26T06:43:57.135Z,10.61
2022-11-26T06:45:03.144Z,10.64
2022-11-26T06:45:57.399Z,10.56
2022-11-26T06:46:57.310Z,10.6
2022-11-26T06:47:56.941Z,10.59
2022-11-26T06:48:56.967Z,10.63
2022-11-26T06:49:57.240Z,10.59
2022-11-26T06:50:57.006Z,10.64
2022-11-26T06:51:57.280Z,10.57
2022-11-26T06:52:57.307Z,10.59
2022-11-26T06:53:57.064Z,10.64
2022-11-26T06:54:57.323Z,10.61
2022-11-26T06:55:57.077Z,10.57
2022-11-26T06:56:57.349Z,10.68
2022-11-26T06:57:57.385Z,10.61
2022-11-26T06:58:57.111Z,10.6
2022-11-26T06:59:57.396Z,10.57
2022-11-26T07:00:57.529Z,10.64
2022-11-26T07:01:58.008Z,10.64
2022-11-26T07:02:57.666Z,10.6
2022-11-26T07:03:57.482Z,10.67
2022-11-26T07:04:57.477Z,10.59
2022-11-26T07:05:57.484Z,10.6
2022-11-26T07:06:57.512Z,10.64
2022-11-26T07:07:57.757Z,10.67
2022-11-26T07:08:57.555Z,10.68
2022-11-26T07:09:57.582Z,10.59
2022-11-26T07:10:57.574Z,10.57
2022-11-26T07:11:57.326Z,10.71
2022-11-26T07:12:57.356Z,10.57
2022-11-26T07:13:57.620Z,10.59
2022-11-26T07:14:57.366Z,10.54
2022-11-26T07:15:57.669Z,10.6
2022-11-26T07:16:57.402Z,10.59
2022-11-26T07:17:57.692Z,10.51
2022-11-26T07:19:05.609Z,10.63
2022-11-26T07:19:57.718Z,10.57
2022-11-26T07:20:57.735Z,10.51
2022-11-26T07:21:57.739Z,10.57
2022-11-26T07:22:57.510Z,10.54
2022-11-26T07:23:57.537Z,10.61
2022-11-26T07:24:57.566Z,10.6
2022-11-26T07:25:57.838Z,10.54
2022-11-26T07:26:57.564Z,10.61
2022-11-26T07:27:57.381Z,10.6
2022-11-26T07:28:57.348Z,10.53
2022-11-26T07:29:57.904Z,10.57
2022-11-26T07:30:57.751Z,10.53
2022-11-26T07:31:58.107Z,10.6
2022-11-26T07:32:57.668Z,10.48
2022-11-26T07:33:57.939Z,10.49
2022-11-26T07:34:57.973Z,10.57
2022-11-26T07:35:57.712Z,10.48
2022-11-26T07:37:02.983Z,10.6
2022-11-26T07:37:57.745Z,10.56
2022-11-26T07:38:57.756Z,10.61
2022-11-26T07:39:58.052Z,10.57
2022-11-26T07:40:58.096Z,10.53
2022-11-26T07:41:57.844Z,10.49
2022-11-26T07:42:58.126Z,10.6
2022-11-26T07:43:58.096Z,10.49
2022-11-26T07:44:58.119Z,10.49
2022-11-26T07:45:58.322Z,10.49
2022-11-26T07:46:57.911Z,10.53
2022-11-26T07:47:57.910Z,10.56
2022-11-26T07:48:57.919Z,10.49
2022-11-26T07:49:58.219Z,10.53
2022-11-26T07:50:58.232Z,10.57
2022-11-26T07:51:57.977Z,10.48
2022-11-26T07:52:58.254Z,10.48
2022-11-26T07:53:58.251Z,10.59
2022-11-26T07:54:58.272Z,10.56
2022-11-26T07:55:58.291Z,10.57
2022-11-26T07:56:58.082Z,10.48
2022-11-26T07:57:58.362Z,10.51
2022-11-26T07:58:58.443Z,10.49
2022-11-26T07:59:58.107Z,10.59
2022-11-26T08:01:04.326Z,10.48
2022-11-26T08:01:58.862Z,10.63
2022-11-26T08:02:58.673Z,10.6
2022-11-26T08:03:58.161Z,10.51
2022-11-26T08:04:57.929Z,10.6
2022-11-26T08:05:58.200Z,10.59
2022-11-26T08:06:58.492Z,10.51
2022-11-26T08:07:58.404Z,10.49
2022-11-26T08:08:58.252Z,10.57
2022-11-26T08:09:58.514Z,10.51
2022-11-26T08:10:58.533Z,10.57
2022-11-26T08:11:58.288Z,10.61
2022-11-26T08:12:58.593Z,10.6
2022-11-26T08:13:58.598Z,10.64
2022-11-26T08:14:58.622Z,10.57
2022-11-26T08:15:58.771Z,10.69
2022-11-26T08:16:58.597Z,10.6
2022-11-26T08:17:58.641Z,10.63
2022-11-26T08:18:58.408Z,10.59
2022-11-26T08:19:58.665Z,10.64
2022-11-26T08:20:58.695Z,10.64
2022-11-26T08:21:58.450Z,10.59
2022-11-26T08:22:58.496Z,10.67
2022-11-26T08:23:58.488Z,10.63
2022-11-26T08:24:58.761Z,10.61
2022-11-26T08:26:37.305Z,10.63
2022-11-26T08:26:58.788Z,10.64
2022-11-26T08:27:58.749Z,10.72
2022-11-26T08:28:58.839Z,10.69
2022-11-26T08:29:58.605Z,10.79
2022-11-26T08:30:58.865Z,10.74
2022-11-26T08:31:59.051Z,10.71
2022-11-26T08:32:58.890Z,10.82
2022-11-26T08:33:58.908Z,10.84
2022-11-26T08:34:58.651Z,10.78
2022-11-26T08:36:11.543Z,10.75
2022-11-26T08:36:58.692Z,10.78
2022-11-26T08:37:58.451Z,10.76
2022-11-26T08:38:58.998Z,10.75
2022-11-26T08:39:59.001Z,10.81
2022-11-26T08:40:59.022Z,10.82
2022-11-26T08:41:59.032Z,10.75
2022-11-26T08:42:58.799Z,10.86
2022-11-26T08:44:14.272Z,10.92
2022-11-26T08:44:58.830Z,10.79
2022-11-26T08:45:58.993Z,10.84
2022-11-26T08:46:59.114Z,10.86
2022-11-26T08:47:59.130Z,10.79
2022-11-26T08:48:58.626Z,10.87
2022-11-26T08:49:59.172Z,10.84
2022-11-26T08:50:59.180Z,10.84
2022-11-26T08:51:59.210Z,10.84
2022-11-26T08:52:59.203Z,10.89
2022-11-26T08:53:59.226Z,10.78
2022-11-26T08:54:59.327Z,10.86
2022-11-26T08:56:05.414Z,10.84
2022-11-26T08:56:59.014Z,10.86
2022-11-26T08:57:59.296Z,10.89
2022-11-26T08:58:59.307Z,10.89
2022-11-26T08:59:59.359Z,10.81
2022-11-26T09:00:59.255Z,10.82
2022-11-26T09:01:59.599Z,10.86
2022-11-26T09:02:59.681Z,10.96
2022-11-26T09:03:59.132Z,10.81
2022-11-26T09:04:59.389Z,10.87
2022-11-26T09:05:59.427Z,10.81
2022-11-26T09:06:59.436Z,10.78
2022-11-26T09:07:59.089Z,10.9
2022-11-26T09:08:59.216Z,10.86
2022-11-26T09:09:59.231Z,10.87
2022-11-26T09:10:59.524Z,10.81
2022-11-26T09:11:59.258Z,10.92
2022-11-26T09:12:59.537Z,10.86
2022-11-26T09:13:59.286Z,10.93
2022-11-26T09:14:59.688Z,10.9
2022-11-26T09:15:59.094Z,10.82
2022-11-26T09:16:59.719Z,10.89
2022-11-26T09:17:59.377Z,10.79
2022-11-26T09:18:59.371Z,10.86
2022-11-26T09:19:59.388Z,10.76
2022-11-26T09:21:02.192Z,10.76
2022-11-26T09:21:59.679Z,10.75
2022-11-26T09:22:59.693Z,10.9
2022-11-26T09:23:59.455Z,10.93
2022-11-26T09:24:59.468Z,10.92
2022-11-26T09:25:59.743Z,11.08
2022-11-26T09:27:07.459Z,11
2022-11-26T09:28:00.088Z,10.93
2022-11-26T09:28:59.282Z,10.96
2022-11-26T09:29:59.541Z,11.05
2022-11-26T09:30:59.831Z,10.94
2022-11-26T09:32:34.350Z,10.94
2022-11-26T09:33:00.168Z,10.99
2022-11-26T09:33:59.645Z,11.04
2022-11-26T09:34:59.900Z,11
2022-11-26T09:35:59.649Z,10.94
2022-11-26T09:37:00.130Z,10.92
2022-11-26T09:38:00.087Z,10.89
2022-11-26T09:39:00.115Z,10.93
2022-11-26T09:40:00.134Z,10.96
2022-11-26T09:40:59.734Z,10.96
2022-11-26T09:41:59.846Z,11
2022-11-26T09:42:59.777Z,10.94
2022-11-26T09:44:00.136Z,10.93
2022-11-26T09:44:59.804Z,10.99
2022-11-26T09:46:00.182Z,11
2022-11-26T09:47:16.979Z,10.92
2022-11-26T09:48:00.171Z,10.93
2022-11-26T09:49:05.494Z,11.08
2022-11-26T09:49:59.912Z,10.92
2022-11-26T09:51:00.153Z,10.94
2022-11-26T09:52:00.169Z,10.94
2022-11-26T09:53:00.181Z,11.02
2022-11-26T09:53:59.947Z,11.02
2022-11-26T09:55:00.221Z,10.99
2022-11-26T09:56:00.230Z,11.05
2022-11-26T09:57:00.243Z,10.99
2022-11-26T09:58:00.141Z,10.99
2022-11-26T09:59:00.298Z,10.94
2022-11-26T10:00:00.149Z,10.99
2022-11-26T10:01:00.311Z,11
2022-11-26T10:02:00.542Z,11.02
2022-11-26T10:03:00.139Z,11.07
2022-11-26T10:04:00.377Z,11.12
2022-11-26T10:05:00.168Z,11.07
2022-11-26T10:06:00.535Z,11.11
2022-11-26T10:07:00.154Z,11.12
2022-11-26T10:08:00.679Z,11.07
2022-11-26T10:09:00.186Z,11.08
2022-11-26T10:10:00.204Z,11.1
2022-11-26T10:11:06.609Z,11.15
2022-11-26T10:12:00.230Z,11.17
2022-11-26T10:13:23.284Z,11.19
2022-11-26T10:14:00.521Z,11.22
2022-11-26T10:15:00.313Z,11.29
2022-11-26T10:16:00.377Z,11.18
2022-11-26T10:17:00.466Z,11.19
2022-11-26T10:18:00.329Z,11.15
2022-11-26T10:19:00.364Z,11.15
2022-11-26T10:20:00.644Z,11.17
2022-11-26T10:21:00.377Z,11.23
2022-11-26T10:22:04.760Z,11.26
2022-11-26T10:23:02.338Z,11.27
2022-11-26T10:24:00.433Z,11.18
2022-11-26T10:25:00.718Z,11.17
2022-11-26T10:26:00.742Z,11.27
2022-11-26T10:27:00.735Z,11.22
2022-11-26T10:28:00.698Z,11.19
2022-11-26T10:29:00.764Z,11.26
2022-11-26T10:30:00.798Z,11.17
2022-11-26T10:31:00.823Z,11.22
2022-11-26T10:32:01.017Z,11.19
2022-11-26T10:33:00.827Z,11.22
2022-11-26T10:34:00.591Z,11.22
2022-11-26T10:35:00.873Z,11.19
2022-11-26T10:36:00.929Z,11.19
2022-11-26T10:37:00.900Z,11.22
2022-11-26T10:38:00.941Z,11.29
2022-11-26T10:39:00.410Z,11.26
2022-11-26T10:40:09.489Z,11.26
2022-11-26T10:41:00.700Z,11.18
2022-11-26T10:42:00.721Z,11.22
2022-11-26T10:43:00.734Z,11.32
2022-11-26T10:44:00.756Z,11.29
2022-11-26T10:45:00.769Z,11.25
2022-11-26T10:46:01.090Z,11.25
2022-11-26T10:47:01.092Z,11.19
2022-11-26T10:48:00.834Z,11.25
2022-11-26T10:49:01.108Z,11.29
2022-11-26T10:50:07.270Z,11.29
2022-11-26T10:51:00.602Z,11.25
2022-11-26T10:52:01.121Z,11.22
2022-11-26T10:53:00.781Z,11.29
2022-11-26T10:54:01.205Z,11.26
2022-11-26T10:55:00.934Z,11.26
2022-11-26T10:56:01.221Z,11.23
2022-11-26T10:57:01.007Z,11.29
2022-11-26T10:58:01.246Z,11.22
2022-11-26T10:59:01.008Z,11.29
2022-11-26T11:00:01.291Z,11.33
2022-11-26T11:01:01.511Z,11.23
2022-11-26T11:02:03.051Z,11.27
2022-11-26T11:03:01.352Z,11.32
2022-11-26T11:04:16.624Z,11.36
2022-11-26T11:05:01.113Z,11.35
2022-11-26T11:06:00.855Z,11.4
2022-11-26T11:07:01.128Z,11.3
2022-11-26T11:08:01.702Z,11.36
2022-11-26T11:09:01.161Z,11.36
2022-11-26T11:10:01.211Z,11.35
2022-11-26T11:11:01.208Z,11.33
2022-11-26T11:12:01.479Z,11.35
2022-11-26T11:13:01.527Z,11.35
2022-11-26T11:14:01.252Z,11.37
2022-11-26T11:15:01.526Z,11.41
2022-11-26T11:16:01.709Z,11.36
2022-11-26T11:17:01.580Z,11.33
2022-11-26T11:18:01.321Z,11.43
2022-11-26T11:19:01.619Z,11.41
2022-11-26T11:20:01.608Z,11.32
2022-11-26T11:21:01.366Z,11.35
2022-11-26T11:22:01.377Z,11.33
2022-11-26T11:23:02.384Z,11.36
2022-11-26T11:24:16.748Z,11.47
2022-11-26T11:25:01.436Z,11.43
2022-11-26T11:26:01.477Z,11.37
2022-11-26T11:27:01.726Z,11.41
2022-11-26T11:28:01.538Z,11.44
2022-11-26T11:29:01.760Z,11.36
2022-11-26T11:30:01.510Z,11.36
2022-11-26T11:31:01.790Z,11.43
2022-11-26T11:32:01.777Z,11.3
2022-11-26T11:33:01.847Z,11.4
2022-11-26T11:34:01.581Z,11.41
2022-11-26T11:35:01.880Z,11.37
2022-11-26T11:36:01.878Z,11.35
2022-11-26T11:37:01.895Z,11.4
2022-11-26T11:38:01.642Z,11.36
2022-11-26T11:39:01.672Z,11.41
2022-11-26T11:40:01.974Z,11.41
2022-11-26T11:41:01.690Z,11.32
2022-11-26T11:42:02.001Z,11.35
2022-11-26T11:43:01.738Z,11.37
2022-11-26T11:44:01.991Z,11.41
2022-11-26T11:45:02.049Z,11.43
2022-11-26T11:46:01.913Z,11.44
2022-11-26T11:47:02.049Z,11.45
2022-11-26T11:48:02.065Z,11.3
2022-11-26T11:49:01.825Z,11.32
2022-11-26T11:50:01.855Z,11.47
2022-11-26T11:51:02.138Z,11.48
2022-11-26T11:52:02.128Z,11.43
2022-11-26T11:53:02.256Z,11.36
2022-11-26T11:54:02.168Z,11.37
2022-11-26T11:55:01.926Z,11.47
2022-11-26T11:56:06.870Z,11.44
2022-11-26T11:57:01.962Z,11.33
2022-11-26T11:58:01.999Z,11.45
2022-11-26T11:59:02.250Z,11.37
2022-11-26T12:00:02.296Z,11.41
2022-11-26T12:01:02.279Z,11.35
2022-11-26T12:02:02.490Z,11.43
2022-11-26T12:03:02.215Z,11.44
2022-11-26T12:04:02.568Z,11.45
2022-11-26T12:05:02.262Z,11.43
2022-11-26T12:06:02.367Z,11.27
2022-11-26T12:07:02.421Z,11.41
2022-11-26T12:08:02.672Z,11.36
2022-11-26T12:09:02.152Z,11.37
2022-11-26T12:10:02.467Z,11.44
2022-11-26T12:11:02.442Z,11.4
2022-11-26T12:12:02.507Z,11.32
2022-11-26T12:13:02.523Z,11.36
2022-11-26T12:14:02.277Z,11.43
2022-11-26T12:15:01.994Z,11.44
2022-11-26T12:16:02.276Z,11.36
2022-11-26T12:17:03.054Z,11.45
2022-11-26T12:18:02.305Z,11.45
2022-11-26T12:19:02.336Z,11.4
2022-11-26T12:20:02.642Z,11.32
2022-11-26T12:21:02.634Z,11.37
2022-11-26T12:22:02.629Z,11.37
2022-11-26T12:23:02.671Z,11.35
2022-11-26T12:24:02.404Z,11.33
2022-11-26T12:25:02.683Z,11.44
2022-11-26T12:26:02.173Z,11.36
2022-11-26T12:27:02.447Z,11.33
2022-11-26T12:28:02.949Z,11.3
2022-11-26T12:29:02.626Z,11.45
2022-11-26T12:30:02.520Z,11.41
2022-11-26T12:31:02.507Z,11.43
2022-11-26T12:32:02.909Z,11.35
2022-11-26T12:33:02.910Z,11.36
2022-11-26T12:34:08.667Z,11.36
2022-11-26T12:35:02.606Z,11.35
2022-11-26T12:36:02.350Z,11.35
2022-11-26T12:37:02.918Z,11.41
2022-11-26T12:38:02.933Z,11.48
2022-11-26T12:39:02.916Z,11.45
2022-11-26T12:40:02.928Z,11.36
2022-11-26T12:41:02.423Z,11.47
2022-11-26T12:42:02.946Z,11.44
2022-11-26T12:43:02.965Z,11.36
2022-11-26T12:44:02.506Z,11.47
2022-11-26T12:45:02.902Z,11.44
2022-11-26T12:46:03.153Z,11.44
2022-11-26T12:47:03.031Z,11.41
2022-11-26T12:48:03.053Z,11.4
2022-11-26T12:49:02.926Z,11.45
2022-11-26T12:50:03.078Z,11.47
2022-11-26T12:51:03.119Z,11.44
2022-11-26T12:52:02.974Z,11.5
2022-11-26T12:53:03.126Z,11.48
2022-11-26T12:54:03.136Z,11.55
2022-11-26T12:55:03.191Z,11.51
2022-11-26T12:56:03.175Z,11.52